Cagayan De Oro, Philippines
Current Conditions -  °F | °C
As of 9:00 PM on Saturday 25 Oct 2014 (Local Time) from RPMD Reporting Station
Broken Clouds Broken Clouds  
Wind Chill: 77°   Ceiling: 29000
Heat Index: 78°   Visibility: 5mi
Dew Point: 73°   Wind: 2mph
Humidity: 89%   Direction: NA
Pressure: 29.88"   Gusts: NA
Location:  8.45342°N, 124.6191°E
Report Text: RPMD 251300Z VRB02KT 8000 FEW016 SCT090 BKN290 25/23 Q1012 RMK A2988
Loading
Personal Weather Stations






























Interactive Weather Map
Tropical Storm Tracking
New forecast layout! Learn more

10-Day Weather Forecast

Advertisements
Track Severe Weather on mobile